KMKY

Marco Island Airport

Marco Island, Florida, USA
METAR KMKY 181525Z AUTO 09011KT 10SM BKN030 BKN035 30/23 A3015 RMK AO2
Observed Flight Rules
Oct-18 @ 15:25 UTC (31 minutes ago) Marginal Visual Flight Rules
Wind Visibility Clouds
90° at 11 knots 10 miles
  • Broken at 3,000' AGL
  • Broken at 3,500' AGL
Temperatures Readings
Current 30°C / 86°F
Dewpoint 23°C / 73°F
Humidity 66%
Altimeter 30.15" Hg
Pressure 1021 hPa
Elevation 2
METAR KMKY 181525Z AUTO 09011KT 10SM BKN030 BKN035 30/23 A3015 RMK AO2
Observed Flight Rules
Oct-18 @ 15:25 UTC
(31 minutes ago)
MVFR
Wind Visibility
90° at 11 knots 10 miles
Clouds
  • Broken at 3,000' AGL
  • Broken at 3,500' AGL
Temperature Dewpoint
30°C / 86°F 23°C / 73°F
Humidity Altimeter Pressure
66% 30.15" Hg 1021 hPa